Time;durP1;ratioP1;P1;durP2;ratioP2;P2;SDS_P1;SDS_P2;PMS_P1;PMS_P2;Temp;Humidity;BMP_temperature;BMP_pressure;BME280_temperature;BME280_humidity;BME280_pressure;Samples;Min_cycle;Max_cycle;Signal;HPM_P1;HPM_P2
2023/03/10 00:00:15;;;;;;;2.13;0.90;;;7.80;98.90;;;;;;2085889;28;20758;-62
2023/03/10 00:01:27;;;;;;;1.83;1.02;;;7.70;99.30;;;;;;2085945;28;20222;-62
2023/03/10 00:02:33;;;;;;;3.78;1.10;;;7.70;99.30;;;;;;2073307;28;20223;-62
2023/03/10 00:03:35;;;;;;;2.00;1.10;;;7.70;99.40;;;;;;2076516;28;20606;-62
2023/03/10 00:04:40;;;;;;;2.40;1.27;;;7.70;99.30;;;;;;2084347;28;20235;-61
2023/03/10 00:05:46;;;;;;;3.20;1.20;;;7.70;99.90;;;;;;2081766;28;20201;-62
2023/03/10 00:06:51;;;;;;;3.60;1.20;;;7.60;99.90;;;;;;2085431;28;20183;-61
2023/03/10 00:07:57;;;;;;;2.10;1.90;;;7.40;99.90;;;;;;2085137;28;20199;-62
2023/03/10 00:09:02;;;;;;;1.17;0.90;;;7.40;99.90;;;;;;2084155;28;20180;-62
2023/03/10 00:10:04;;;;;;;2.13;1.10;;;7.30;99.90;;;;;;2089403;28;20195;-62
2023/03/10 00:11:09;;;;;;;1.38;1.15;;;7.30;99.90;;;;;;2088773;28;20271;-62
2023/03/10 00:12:14;;;;;;;2.83;1.10;;;7.30;99.90;;;;;;2085475;28;20217;-62
2023/03/10 00:13:20;;;;;;;1.15;0.90;;;7.30;99.90;;;;;;2081400;28;20193;-62
2023/03/10 00:14:25;;;;;;;3.85;1.00;;;7.40;99.90;;;;;;2086155;28;20192;-61
2023/03/10 00:15:31;;;;;;;2.72;1.08;;;7.40;99.90;;;;;;2085880;28;20298;-61
2023/03/10 00:16:36;;;;;;;2.03;1.10;;;7.40;99.90;;;;;;2082388;28;20187;-62
2023/03/10 00:17:41;;;;;;;2.95;1.23;;;7.40;99.90;;;;;;2085143;28;20608;-61
2023/03/10 00:18:48;;;;;;;3.67;1.10;;;7.40;99.90;;;;;;2085698;28;20203;-61
2023/03/10 00:19:52;;;;;;;4.50;1.02;;;7.50;99.90;;;;;;2081776;28;20703;-62
2023/03/10 00:20:58;;;;;;;3.75;1.45;;;7.50;99.90;;;;;;2085412;28;20223;-62
2023/03/10 00:22:03;;;;;;;2.63;0.90;;;7.50;99.90;;;;;;2084953;28;20232;-62
2023/03/10 00:23:09;;;;;;;3.05;1.20;;;7.50;99.90;;;;;;2081737;28;20267;-62
2023/03/10 00:24:14;;;;;;;3.40;1.08;;;7.40;99.90;;;;;;2085159;28;20283;-61
2023/03/10 00:25:19;;;;;;;3.75;1.30;;;7.50;99.90;;;;;;2085294;28;20271;-62
2023/03/10 00:26:27;;;;;;;3.53;1.10;;;7.50;99.90;;;;;;2081291;28;20676;-62
2023/03/10 00:27:32;;;;;;;2.08;1.00;;;7.50;99.90;;;;;;2085227;28;20184;-60
2023/03/10 00:28:38;;;;;;;1.48;0.70;;;7.60;99.90;;;;;;2084912;28;20661;-62
2023/03/10 00:29:43;;;;;;;2.30;1.00;;;7.60;99.90;;;;;;2081614;28;20707;-61
2023/03/10 00:30:59;;;;;;;3.70;1.08;;;7.60;99.90;;;;;;2085078;28;20558;-61
2023/03/10 00:32:04;;;;;;;2.80;1.27;;;7.60;99.90;;;;;;2081408;28;20211;-61
2023/03/10 00:33:08;;;;;;;3.28;1.00;;;7.70;99.90;;;;;;2085146;28;20215;-62
2023/03/10 00:34:14;;;;;;;2.63;1.55;;;7.60;99.90;;;;;;2085124;28;20192;-62
2023/03/10 00:35:20;;;;;;;2.72;1.13;;;7.70;99.90;;;;;;2085282;28;20208;-62
2023/03/10 00:36:28;;;;;;;4.03;1.10;;;7.70;99.90;;;;;;2085716;28;20907;-60
2023/03/10 00:37:31;;;;;;;2.90;0.90;;;7.80;99.90;;;;;;2085675;28;20559;-61
2023/03/10 00:38:37;;;;;;;2.97;1.08;;;7.70;99.90;;;;;;2085030;28;20172;-62
2023/03/10 00:39:42;;;;;;;2.08;0.90;;;7.70;99.90;;;;;;2085102;28;20168;-62
2023/03/10 00:40:47;;;;;;;4.25;1.10;;;7.60;99.90;;;;;;2084973;28;20185;-62
2023/03/10 00:41:53;;;;;;;5.35;1.10;;;7.60;99.90;;;;;;2085288;28;20216;-62
2023/03/10 00:42:58;;;;;;;3.05;2.85;;;7.60;99.90;;;;;;2085498;28;20209;-62
2023/03/10 00:44:06;;;;;;;3.95;1.13;;;7.60;99.90;;;;;;2085492;28;20228;-62
2023/03/10 00:45:09;;;;;;;2.38;1.13;;;7.60;99.90;;;;;;2085556;28;20310;-62
2023/03/10 00:46:15;;;;;;;1.42;1.00;;;7.50;99.90;;;;;;2076323;28;20677;-62
2023/03/10 00:47:19;;;;;;;1.10;0.95;;;7.40;99.90;;;;;;2076288;28;20616;-62
2023/03/10 00:48:25;;;;;;;1.65;0.90;;;7.40;99.90;;;;;;2084144;28;20214;-62
2023/03/10 00:49:30;;;;;;;2.35;0.98;;;7.40;99.90;;;;;;2081744;28;20192;-62
2023/03/10 00:50:36;;;;;;;1.40;1.17;;;7.30;99.90;;;;;;2085067;28;20199;-61
2023/03/10 00:51:41;;;;;;;5.95;2.30;;;7.20;99.90;;;;;;2084870;28;20192;-61
2023/03/10 00:52:50;;;;;;;3.17;1.38;;;7.10;99.90;;;;;;2081674;28;20187;-62
2023/03/10 00:53:52;;;;;;;2.78;1.00;;;7.10;99.90;;;;;;2084858;28;20204;-62
2023/03/10 00:54:58;;;;;;;3.85;0.80;;;7.00;99.90;;;;;;2085081;28;20188;-62
2023/03/10 00:56:09;;;;;;;2.95;0.82;;;7.00;99.90;;;;;;2072387;28;20300;-62
2023/03/10 00:57:14;;;;;;;1.80;0.73;;;7.00;99.90;;;;;;2069399;28;20738;-62
2023/03/10 00:58:20;;;;;;;2.05;0.60;;;7.00;99.90;;;;;;2077954;28;20181;-61
2023/03/10 00:59:25;;;;;;;1.08;0.90;;;7.00;99.90;;;;;;2085988;28;20201;-61
2023/03/10 01:00:31;;;;;;;1.52;1.10;;;7.00;99.90;;;;;;2085172;28;20204;-61
2023/03/10 01:01:39;;;;;;;2.65;1.85;;;7.00;99.90;;;;;;2084778;28;20209;-62
2023/03/10 01:02:44;;;;;;;4.53;4.22;;;7.00;99.90;;;;;;2082006;28;20219;-61
2023/03/10 01:03:51;;;;;;;1.55;0.90;;;6.90;99.90;;;;;;2084684;28;20208;-62
2023/03/10 01:04:55;;;;;;;2.85;1.02;;;6.80;99.90;;;;;;2085079;28;20212;-62
2023/03/10 01:06:00;;;;;;;2.10;0.73;;;6.80;99.90;;;;;;2085233;28;20274;-62
2023/03/10 01:07:04;;;;;;;1.75;1.65;;;6.80;99.90;;;;;;2085476;28;20624;-62
2023/03/10 01:08:04;;;;;;;1.20;1.13;;;6.90;99.90;;;;;;2076166;28;20200;-62
2023/03/10 01:09:09;;;;;;;3.97;3.55;;;6.90;99.90;;;;;;2076912;28;20195;-62
2023/03/10 01:10:14;;;;;;;3.92;3.67;;;6.90;99.90;;;;;;2084750;28;20185;-62
2023/03/10 01:11:24;;;;;;;4.40;4.18;;;6.80;99.90;;;;;;2075998;28;20195;-62
2023/03/10 01:12:26;;;;;;;1.70;0.70;;;6.80;99.90;;;;;;2077519;28;20210;-61
2023/03/10 01:13:33;;;;;;;1.95;1.00;;;6.80;99.90;;;;;;2083919;28;20216;-62
2023/03/10 01:14:37;;;;;;;4.68;4.28;;;6.80;99.90;;;;;;2083941;28;20184;-63
2023/03/10 01:15:46;;;;;;;1.95;1.05;;;6.80;99.90;;;;;;2085021;28;20246;-62
2023/03/10 01:16:49;;;;;;;0.82;0.70;;;6.80;99.90;;;;;;2084647;28;20183;-63
2023/03/10 01:17:54;;;;;;;1.48;1.00;;;6.70;99.90;;;;;;2084565;28;20173;-62
2023/03/10 01:19:00;;;;;;;1.10;0.73;;;6.80;99.90;;;;;;2084687;28;20187;-63
2023/03/10 01:20:07;;;;;;;1.38;0.82;;;6.80;99.90;;;;;;2081208;28;20190;-63
2023/03/10 01:21:19;;;;;;;1.67;0.90;;;6.80;99.90;;;;;;2084663;28;20183;-63
2023/03/10 01:22:21;;;;;;;1.52;1.13;;;6.70;99.90;;;;;;2084893;28;20267;-63
2023/03/10 01:23:27;;;;;;;0.90;0.73;;;6.70;99.90;;;;;;2085135;28;20278;-63
2023/03/10 01:24:32;;;;;;;0.50;0.50;;;6.70;99.90;;;;;;2085924;28;20204;-63
2023/03/10 01:25:38;;;;;;;1.15;1.08;;;6.70;99.90;;;;;;2085089;28;20239;-62
2023/03/10 01:26:43;;;;;;;0.65;0.60;;;6.70;99.90;;;;;;2085133;28;20256;-63
2023/03/10 01:27:49;;;;;;;0.60;0.60;;;6.70;99.90;;;;;;2085068;28;20558;-63
2023/03/10 01:28:54;;;;;;;14.77;2.42;;;6.70;99.90;;;;;;2084818;28;20296;-63
2023/03/10 01:29:59;;;;;;;0.50;0.50;;;6.70;99.90;;;;;;2084788;28;20279;-63
2023/03/10 01:31:06;;;;;;;4.45;1.15;;;6.70;99.90;;;;;;2075829;28;20192;-63
2023/03/10 01:32:09;;;;;;;0.80;0.60;;;6.60;99.90;;;;;;2076811;28;20216;-62
2023/03/10 01:33:14;;;;;;;0.50;0.50;;;6.60;99.90;;;;;;2081240;28;20192;-63
2023/03/10 01:34:19;;;;;;;1.73;1.73;;;6.60;99.90;;;;;;2076175;28;20188;-62
2023/03/10 01:35:25;;;;;;;0.82;0.40;;;6.60;99.90;;;;;;2076991;28;20211;-63
2023/03/10 01:36:30;;;;;;;0.47;0.47;;;6.50;99.90;;;;;;2081264;28;20180;-63
2023/03/10 01:37:36;;;;;;;0.43;0.30;;;6.50;99.90;;;;;;2084372;28;20230;-63
2023/03/10 01:38:42;;;;;;;0.40;0.40;;;6.50;99.90;;;;;;2084621;28;20535;-63
2023/03/10 01:39:47;;;;;;;3.50;0.60;;;6.50;99.90;;;;;;2081057;28;20594;-62
2023/03/10 01:40:52;;;;;;;3.05;2.95;;;6.40;99.90;;;;;;2084673;28;20647;-62
2023/03/10 01:41:53;;;;;;;0.60;0.50;;;6.40;99.90;;;;;;2075737;28;20303;-61
2023/03/10 01:43:26;;;;;;;1.30;1.20;;;6.40;99.90;;;;;;2076580;28;20301;-62
2023/03/10 01:44:28;;;;;;;1.20;1.20;;;6.40;99.90;;;;;;2081155;28;20930;-62
2023/03/10 01:45:36;;;;;;;0.40;0.40;;;6.30;99.90;;;;;;2084655;28;20192;-62
2023/03/10 01:46:45;;;;;;;3.40;0.60;;;6.30;99.90;;;;;;2084803;28;20560;-62
2023/03/10 01:47:48;;;;;;;0.57;0.57;;;6.40;99.90;;;;;;2081009;28;20203;-61
2023/03/10 01:48:59;;;;;;;1.67;1.58;;;6.30;99.90;;;;;;2084664;28;20211;-62
2023/03/10 01:50:12;;;;;;;0.30;0.30;;;6.30;99.90;;;;;;2084776;28;20185;-63
2023/03/10 01:51:19;;;;;;;1.05;0.50;;;6.30;99.90;;;;;;2085224;28;20185;-61
2023/03/10 01:52:29;;;;;;;0.57;0.57;;;6.30;99.90;;;;;;2075872;28;20205;-62
2023/03/10 01:53:34;;;;;;;0.82;0.82;;;6.40;99.90;;;;;;2077849;28;20189;-62
2023/03/10 01:54:51;;;;;;;1.27;0.85;;;6.30;99.90;;;;;;2084723;28;20185;-62
2023/03/10 01:56:02;;;;;;;0.60;0.60;;;6.30;99.90;;;;;;2073453;28;20215;-61
2023/03/10 01:57:05;;;;;;;0.45;0.40;;;6.20;99.90;;;;;;2069055;28;20234;-62
2023/03/10 01:58:09;;;;;;;0.40;0.40;;;6.30;99.90;;;;;;2076218;28;20177;-62
2023/03/10 01:59:16;;;;;;;1.17;1.17;;;6.30;99.90;;;;;;2084724;28;20188;-62
2023/03/10 02:00:24;;;;;;;0.30;0.30;;;6.30;99.90;;;;;;2084657;28;20205;-61
2023/03/10 02:01:31;;;;;;;0.95;0.95;;;6.20;99.90;;;;;;2081951;28;20541;-62
2023/03/10 02:02:52;;;;;;;0.35;0.30;;;6.30;99.90;;;;;;2084719;28;20645;-62
2023/03/10 02:04:07;;;;;;;3.42;0.50;;;6.30;99.90;;;;;;2082128;28;20594;-62
2023/03/10 02:05:11;;;;;;;0.47;0.47;;;6.30;99.90;;;;;;2072170;28;20184;-62
2023/03/10 02:06:20;;;;;;;0.45;0.40;;;6.30;99.90;;;;;;2068726;28;20276;-62
2023/03/10 02:07:29;;;;;;;2.53;0.40;;;6.30;99.90;;;;;;2069504;28;20252;-62
2023/03/10 02:08:41;;;;;;;0.40;0.40;;;6.30;99.90;;;;;;2080789;28;20182;-62
2023/03/10 02:09:49;;;;;;;10.80;1.73;;;6.30;99.90;;;;;;2080723;28;20177;-62
2023/03/10 02:10:56;;;;;;;2.53;0.40;;;6.30;99.90;;;;;;2079231;28;20277;-62
2023/03/10 02:12:04;;;;;;;0.77;0.77;;;6.30;99.90;;;;;;2085031;28;20202;-62
2023/03/10 02:13:09;;;;;;;7.05;6.53;;;6.30;99.90;;;;;;2081734;28;20293;-62
2023/03/10 02:14:09;;;;;;;4.97;4.67;;;6.30;99.90;;;;;;2086282;28;20180;-62
2023/03/10 02:15:15;;;;;;;3.00;0.50;;;6.30;99.90;;;;;;2086030;28;20222;-61
2023/03/10 02:16:21;;;;;;;0.98;0.57;;;6.30;99.90;;;;;;2081782;28;20243;-62
2023/03/10 02:17:27;;;;;;;0.43;0.43;;;6.40;99.90;;;;;;2078852;28;20260;-62
2023/03/10 02:18:33;;;;;;;0.60;0.60;;;6.40;99.90;;;;;;2085567;28;20661;-62
2023/03/10 02:20:19;;;;;;;1.58;1.50;;;6.40;99.90;;;;;;2086462;28;20180;-62
2023/03/10 02:21:44;;;;;;;2.78;2.58;;;6.60;99.90;;;;;;2076100;28;20190;-62
2023/03/10 02:22:50;;;;;;;1.00;0.70;;;6.60;99.90;;;;;;2063819;28;20567;-62
2023/03/10 02:24:20;;;;;;;1.35;0.90;;;6.70;99.90;;;;;;2072692;28;20200;-62
2023/03/10 02:25:40;;;;;;;2.22;1.98;;;6.70;99.90;;;;;;2074154;28;20270;-62
2023/03/10 02:26:55;;;;;;;1.40;1.30;;;6.70;99.90;;;;;;2077219;28;20184;-62
2023/03/10 02:28:02;;;;;;;1.55;1.20;;;6.70;99.90;;;;;;2085490;28;20239;-62
2023/03/10 02:29:10;;;;;;;3.28;0.90;;;6.70;99.90;;;;;;2077657;28;20186;-62
2023/03/10 02:30:22;;;;;;;1.38;0.82;;;6.80;99.90;;;;;;2079788;28;20729;-62
2023/03/10 02:31:29;;;;;;;1.65;1.55;;;6.80;99.90;;;;;;2082261;28;20266;-62
2023/03/10 02:32:44;;;;;;;2.67;2.47;;;6.80;99.90;;;;;;2077460;28;20184;-62
2023/03/10 02:33:50;;;;;;;3.35;1.38;;;6.70;99.90;;;;;;2077265;28;20269;-62
2023/03/10 02:34:56;;;;;;;1.58;0.80;;;6.80;99.90;;;;;;2077621;28;20217;-62
2023/03/10 02:36:17;;;;;;;0.80;0.60;;;6.80;99.90;;;;;;2070926;28;20212;-63
2023/03/10 02:37:30;;;;;;;6.72;6.43;;;6.80;99.90;;;;;;2078630;28;20268;-62
2023/03/10 02:38:35;;;;;;;3.67;3.45;;;6.80;99.90;;;;;;2082871;28;20230;-63
2023/03/10 02:39:40;;;;;;;3.80;3.60;;;6.80;99.90;;;;;;2085986;28;20184;-62
2023/03/10 02:40:49;;;;;;;2.03;1.20;;;6.80;99.90;;;;;;2086168;28;20196;-62
2023/03/10 02:41:53;;;;;;;9.75;8.52;;;6.80;99.90;;;;;;2082853;28;20214;-61
2023/03/10 02:43:10;;;;;;;4.50;2.88;;;6.80;99.90;;;;;;2086078;28;20266;-62
2023/03/10 02:44:21;;;;;;;3.53;1.92;;;6.90;99.90;;;;;;2074224;28;20181;-62
2023/03/10 02:45:36;;;;;;;2.53;1.77;;;6.90;99.90;;;;;;2079222;28;20729;-63
2023/03/10 02:46:42;;;;;;;9.30;8.82;;;6.80;99.90;;;;;;2075085;28;20196;-61
2023/03/10 02:47:48;;;;;;;3.95;2.35;;;6.90;99.90;;;;;;2078332;28;20750;-63
2023/03/10 02:48:58;;;;;;;3.80;1.08;;;6.90;99.90;;;;;;2082507;28;20188;-63
2023/03/10 02:50:07;;;;;;;1.92;1.77;;;6.90;99.90;;;;;;2077085;28;20576;-62
2023/03/10 02:51:23;;;;;;;2.53;1.55;;;6.90;99.90;;;;;;2070336;28;20930;-62
2023/03/10 02:52:46;;;;;;;2.72;1.73;;;6.90;99.90;;;;;;2072301;28;20262;-63
2023/03/10 02:53:52;;;;;;;3.28;2.97;;;6.90;99.90;;;;;;2071410;28;20176;-61
2023/03/10 02:54:57;;;;;;;7.78;7.32;;;6.90;99.90;;;;;;2078898;28;20183;-62
2023/03/10 02:56:03;;;;;;;1.95;1.25;;;6.90;99.90;;;;;;2086073;28;20209;-63
2023/03/10 02:57:04;;;;;;;9.00;8.45;;;6.90;99.90;;;;;;2086476;28;20887;-62
2023/03/10 02:58:11;;;;;;;7.55;6.97;;;6.90;99.90;;;;;;2085965;28;20186;-62
2023/03/10 02:59:15;;;;;;;1.95;0.95;;;6.90;99.90;;;;;;2082557;28;20192;-63
2023/03/10 03:00:21;;;;;;;2.50;1.25;;;7.00;99.90;;;;;;2085951;28;20187;-62
2023/03/10 03:01:29;;;;;;;3.50;3.30;;;7.00;99.90;;;;;;2085857;28;20193;-63
2023/03/10 03:02:32;;;;;;;2.55;1.30;;;7.00;99.90;;;;;;2082276;28;20183;-62
2023/03/10 03:03:37;;;;;;;4.00;1.10;;;7.00;99.90;;;;;;2085967;28;20268;-62
2023/03/10 03:04:43;;;;;;;4.60;4.20;;;7.00;99.90;;;;;;2087134;28;20709;-62
2023/03/10 03:05:48;;;;;;;2.58;1.55;;;7.00;99.90;;;;;;2083040;28;20927;-62
2023/03/10 03:06:54;;;;;;;2.33;2.13;;;7.10;99.90;;;;;;2086143;28;20200;-63
2023/03/10 03:07:59;;;;;;;2.20;0.80;;;7.10;99.90;;;;;;2086044;28;20207;-63
2023/03/10 03:09:04;;;;;;;3.72;1.20;;;7.10;99.90;;;;;;2085620;28;20180;-63
2023/03/10 03:10:10;;;;;;;5.57;4.70;;;7.10;99.90;;;;;;2085896;28;20540;-62
2023/03/10 03:11:15;;;;;;;2.13;1.80;;;7.00;99.90;;;;;;2085611;28;20183;-62
2023/03/10 03:12:20;;;;;;;1.58;1.05;;;7.10;99.90;;;;;;2086022;28;20750;-62
2023/03/10 03:13:25;;;;;;;2.05;1.10;;;7.10;99.90;;;;;;2086280;28;20550;-62
2023/03/10 03:14:31;;;;;;;1.73;0.95;;;7.10;99.90;;;;;;2086400;28;20492;-62
2023/03/10 03:15:36;;;;;;;2.63;0.98;;;7.10;99.90;;;;;;2085745;28;20228;-62
2023/03/10 03:16:42;;;;;;;4.30;4.00;;;7.10;99.90;;;;;;2085729;28;20183;-62
2023/03/10 03:17:47;;;;;;;3.88;3.10;;;7.10;99.90;;;;;;2085396;28;20215;-62
2023/03/10 03:18:52;;;;;;;10.30;9.65;;;7.00;99.90;;;;;;2085654;28;20176;-63
2023/03/10 03:19:58;;;;;;;1.60;0.90;;;7.00;99.90;;;;;;2082836;28;20209;-63
2023/03/10 03:21:10;;;;;;;1.10;1.00;;;7.10;99.90;;;;;;2085614;28;20184;-62
2023/03/10 03:22:14;;;;;;;3.17;2.97;;;7.00;99.90;;;;;;2086451;28;20255;-62
2023/03/10 03:23:19;;;;;;;1.92;1.17;;;7.10;99.90;;;;;;2085943;28;20215;-62
2023/03/10 03:24:25;;;;;;;2.00;1.90;;;7.10;99.90;;;;;;2080805;28;20376;-63
2023/03/10 03:25:36;;;;;;;1.38;0.98;;;7.10;99.90;;;;;;2089974;28;20192;-61
2023/03/10 03:26:39;;;;;;;1.10;1.00;;;7.10;99.90;;;;;;2078030;28;20178;-61
2023/03/10 03:27:43;;;;;;;0.98;0.98;;;7.10;99.90;;;;;;2077835;28;20193;-61
2023/03/10 03:28:48;;;;;;;2.00;1.45;;;7.00;99.90;;;;;;2085558;28;20215;-63
2023/03/10 03:29:49;;;;;;;2.25;1.00;;;6.90;99.90;;;;;;2085625;28;20201;-61
2023/03/10 03:30:55;;;;;;;2.53;0.90;;;7.00;99.90;;;;;;2068674;28;20189;-61
2023/03/10 03:32:00;;;;;;;2.97;2.70;;;7.00;99.90;;;;;;2070532;28;20214;-62
2023/03/10 03:33:06;;;;;;;2.58;0.85;;;7.00;99.90;;;;;;2081527;28;20186;-62
2023/03/10 03:34:09;;;;;;;2.67;1.75;;;7.00;99.90;;;;;;2085481;28;20188;-62
2023/03/10 03:35:19;;;;;;;3.70;1.92;;;7.00;99.90;;;;;;2085485;28;20662;-62
2023/03/10 03:36:21;;;;;;;1.90;1.40;;;7.00;99.90;;;;;;2073092;28;20316;-62
2023/03/10 03:37:26;;;;;;;2.38;1.33;;;7.00;99.90;;;;;;2077547;28;20784;-62
2023/03/10 03:38:32;;;;;;;2.33;1.15;;;7.00;99.90;;;;;;2085360;28;20197;-62
2023/03/10 03:39:37;;;;;;;3.45;1.25;;;6.90;99.90;;;;;;2078183;28;20185;-61
2023/03/10 03:40:44;;;;;;;1.63;1.25;;;7.00;99.90;;;;;;2083195;28;20176;-62
2023/03/10 03:41:52;;;;;;;2.88;2.00;;;7.00;99.90;;;;;;2082128;28;20678;-61
2023/03/10 03:42:57;;;;;;;1.33;1.17;;;6.90;99.90;;;;;;2081367;28;20180;-62
2023/03/10 03:44:03;;;;;;;2.85;1.60;;;6.90;99.90;;;;;;2086122;28;20642;-62
2023/03/10 03:45:05;;;;;;;2.70;2.50;;;6.90;99.90;;;;;;2085941;28;20181;-61
2023/03/10 03:46:09;;;;;;;1.70;1.60;;;6.80;99.90;;;;;;2086036;28;20928;-62
2023/03/10 03:47:14;;;;;;;3.00;1.65;;;6.80;99.90;;;;;;2085488;28;20199;-64
2023/03/10 03:48:20;;;;;;;2.20;2.00;;;6.80;99.90;;;;;;2085309;28;20256;-61
2023/03/10 03:49:25;;;;;;;2.53;2.22;;;6.70;99.90;;;;;;2085334;28;20189;-61
2023/03/10 03:50:31;;;;;;;6.25;1.38;;;6.80;99.90;;;;;;2082294;28;20191;-62
2023/03/10 03:51:36;;;;;;;3.92;3.65;;;6.80;99.90;;;;;;2085408;28;20222;-61
2023/03/10 03:52:43;;;;;;;2.45;1.77;;;6.80;99.90;;;;;;2085617;28;20195;-61
2023/03/10 03:53:47;;;;;;;5.07;4.63;;;6.80;99.90;;;;;;2082182;28;20204;-62
2023/03/10 03:54:53;;;;;;;3.95;3.65;;;6.70;99.90;;;;;;2085563;28;20184;-62
2023/03/10 03:55:58;;;;;;;3.80;0.93;;;6.70;99.90;;;;;;2085269;28;20216;-62
2023/03/10 03:57:04;;;;;;;1.05;0.73;;;6.70;99.90;;;;;;2082208;28;20187;-61
2023/03/10 03:58:09;;;;;;;2.17;1.10;;;6.70;99.90;;;;;;2085261;28;20191;-61
2023/03/10 03:59:14;;;;;;;1.13;1.02;;;6.70;99.90;;;;;;2085467;28;20184;-62
2023/03/10 04:00:23;;;;;;;2.45;1.10;;;6.70;99.90;;;;;;2081784;28;20664;-62
2023/03/10 04:01:27;;;;;;;0.80;0.65;;;6.70;99.90;;;;;;2085469;28;20277;-62
2023/03/10 04:02:33;;;;;;;1.75;0.70;;;6.60;99.90;;;;;;2085540;28;20195;-62
2023/03/10 04:03:38;;;;;;;2.58;1.00;;;6.60;99.90;;;;;;2081866;28;20269;-62
2023/03/10 04:04:43;;;;;;;1.00;1.00;;;6.60;99.90;;;;;;2085265;28;20277;-62
2023/03/10 04:05:49;;;;;;;2.53;0.82;;;6.60;99.90;;;;;;2085308;28;20654;-62
2023/03/10 04:06:54;;;;;;;1.08;0.90;;;6.70;99.90;;;;;;2081775;28;20589;-62
2023/03/10 04:08:00;;;;;;;3.15;0.75;;;6.70;99.90;;;;;;2090605;28;20251;-62
2023/03/10 04:09:06;;;;;;;3.65;0.88;;;6.70;99.90;;;;;;2089741;28;20199;-62
2023/03/10 04:10:14;;;;;;;3.28;3.08;;;6.80;99.90;;;;;;2088029;28;20275;-62
2023/03/10 04:11:14;;;;;;;0.52;0.52;;;6.80;99.90;;;;;;2086260;28;20184;-63
2023/03/10 04:12:20;;;;;;;2.55;0.70;;;6.80;99.90;;;;;;2076936;28;20235;-62
2023/03/10 04:13:25;;;;;;;2.50;1.58;;;6.80;99.90;;;;;;2078395;28;20220;-62
2023/03/10 04:14:31;;;;;;;3.40;1.30;;;6.80;99.90;;;;;;2085510;28;20648;-63
2023/03/10 04:15:36;;;;;;;1.73;0.90;;;6.80;99.90;;;;;;2085347;28;20693;-62
2023/03/10 04:16:42;;;;;;;2.00;0.75;;;6.80;99.90;;;;;;2085363;28;20173;-62
2023/03/10 04:17:47;;;;;;;3.63;0.90;;;6.80;99.90;;;;;;2079546;28;20187;-62
2023/03/10 04:18:52;;;;;;;1.65;1.00;;;6.90;99.90;;;;;;2085714;28;20189;-61
2023/03/10 04:19:58;;;;;;;2.72;1.63;;;6.90;99.90;;;;;;2086068;28;20267;-62
2023/03/10 04:21:04;;;;;;;1.65;0.90;;;6.80;99.90;;;;;;2083634;28;20633;-62
2023/03/10 04:22:08;;;;;;;2.13;1.05;;;6.80;99.90;;;;;;2085449;28;20207;-61
2023/03/10 04:23:14;;;;;;;2.78;0.80;;;6.80;99.90;;;;;;2085363;28;20180;-62
2023/03/10 04:24:19;;;;;;;0.93;0.88;;;6.80;99.90;;;;;;2072954;28;20216;-62
2023/03/10 04:25:25;;;;;;;2.30;1.00;;;6.80;99.90;;;;;;2077712;28;20200;-61
2023/03/10 04:26:30;;;;;;;1.60;0.90;;;6.80;99.90;;;;;;2085265;28;20185;-62
2023/03/10 04:27:36;;;;;;;2.35;0.75;;;6.90;99.90;;;;;;2081372;28;20194;-61
2023/03/10 04:28:41;;;;;;;1.15;0.80;;;6.90;99.90;;;;;;2076394;28;20706;-62
2023/03/10 04:29:42;;;;;;;1.27;0.60;;;6.90;99.90;;;;;;2076991;28;20200;-62
2023/03/10 04:30:47;;;;;;;1.23;0.82;;;6.90;99.90;;;;;;2085357;28;20235;-62
2023/03/10 04:31:53;;;;;;;1.45;0.80;;;7.00;99.90;;;;;;2082045;28;20216;-62
2023/03/10 04:33:00;;;;;;;3.50;1.10;;;7.00;99.90;;;;;;2085329;28;20185;-61
2023/03/10 04:34:04;;;;;;;1.23;0.73;;;6.90;99.90;;;;;;2085157;28;20180;-62
2023/03/10 04:35:12;;;;;;;1.45;0.90;;;6.90;99.90;;;;;;2081703;28;20195;-63
2023/03/10 04:36:17;;;;;;;1.77;1.27;;;7.00;99.90;;;;;;2078386;28;20259;-63
2023/03/10 04:37:21;;;;;;;1.25;0.70;;;7.10;99.90;;;;;;2077852;28;20262;-62
2023/03/10 04:38:27;;;;;;;1.60;0.98;;;7.10;99.90;;;;;;2081671;28;20565;-62
2023/03/10 04:39:32;;;;;;;2.33;1.27;;;7.10;99.90;;;;;;2085115;28;20247;-62
2023/03/10 04:40:38;;;;;;;2.72;1.00;;;7.20;99.90;;;;;;2085241;28;20757;-63
2023/03/10 04:41:43;;;;;;;1.35;0.63;;;7.10;99.90;;;;;;2081506;28;20653;-63
2023/03/10 04:42:49;;;;;;;1.30;1.13;;;7.10;99.90;;;;;;2084873;28;20541;-63
2023/03/10 04:43:54;;;;;;;1.75;1.65;;;7.10;99.90;;;;;;2085107;28;20193;-62
2023/03/10 04:45:00;;;;;;;1.05;0.75;;;7.00;99.90;;;;;;2081567;28;20180;-62
2023/03/10 04:46:05;;;;;;;3.70;0.70;;;6.90;99.90;;;;;;2084988;28;20181;-63
2023/03/10 04:47:09;;;;;;;2.42;0.70;;;6.80;99.90;;;;;;2085129;28;20204;-62
2023/03/10 04:48:14;;;;;;;5.28;0.73;;;6.90;99.90;;;;;;2084833;28;20216;-62
2023/03/10 04:49:20;;;;;;;1.30;0.73;;;6.90;99.90;;;;;;2085648;28;20197;-62
2023/03/10 04:50:26;;;;;;;1.45;0.70;;;6.80;99.90;;;;;;2085557;28;20261;-62
2023/03/10 04:51:27;;;;;;;2.92;0.70;;;6.80;99.90;;;;;;2085602;28;20184;-62
2023/03/10 04:52:32;;;;;;;1.88;0.60;;;6.80;99.90;;;;;;2081626;28;20189;-62
2023/03/10 04:53:39;;;;;;;1.92;0.70;;;6.70;99.90;;;;;;2077300;28;20177;-62
2023/03/10 04:54:43;;;;;;;1.13;0.60;;;6.70;99.90;;;;;;2084923;28;20192;-62
2023/03/10 04:55:50;;;;;;;4.50;0.80;;;6.70;99.90;;;;;;2081588;28;20226;-62
2023/03/10 04:56:54;;;;;;;1.00;0.95;;;6.70;99.90;;;;;;2085068;28;20660;-62
2023/03/10 04:58:00;;;;;;;2.92;0.60;;;6.70;99.90;;;;;;2084656;28;20999;-62
2023/03/10 04:59:05;;;;;;;0.75;0.60;;;6.60;99.90;;;;;;2081168;28;20642;-62
2023/03/10 05:00:11;;;;;;;1.73;0.82;;;6.60;99.90;;;;;;2083225;28;20184;-62
2023/03/10 05:01:15;;;;;;;2.35;0.60;;;6.50;99.90;;;;;;2086252;28;20494;-62
2023/03/10 05:02:20;;;;;;;1.00;0.70;;;6.60;99.90;;;;;;2085472;28;20215;-61
2023/03/10 05:03:26;;;;;;;7.45;2.90;;;6.70;99.90;;;;;;2085517;28;20203;-61
2023/03/10 05:04:31;;;;;;;2.13;1.10;;;6.50;99.90;;;;;;2085557;28;20246;-62
2023/03/10 05:05:37;;;;;;;3.10;1.60;;;6.50;99.90;;;;;;2085397;28;20191;-62
2023/03/10 05:06:40;;;;;;;2.83;0.95;;;6.40;99.90;;;;;;2084821;28;20732;-62
2023/03/10 05:07:45;;;;;;;2.55;1.40;;;6.40;99.90;;;;;;2085042;28;20275;-62
2023/03/10 05:08:51;;;;;;;1.15;0.70;;;6.40;99.90;;;;;;2084811;28;20193;-63
2023/03/10 05:09:57;;;;;;;1.13;1.00;;;6.40;99.90;;;;;;2081610;28;20184;-63
2023/03/10 05:11:05;;;;;;;0.90;0.60;;;6.30;99.90;;;;;;2084798;28;20184;-63
2023/03/10 05:12:10;;;;;;;2.22;2.10;;;6.30;99.90;;;;;;2085074;28;20548;-63
2023/03/10 05:13:15;;;;;;;1.67;0.60;;;6.30;99.90;;;;;;2076013;28;20259;-62
2023/03/10 05:14:20;;;;;;;0.82;0.70;;;6.20;99.90;;;;;;2077359;28;20683;-63
2023/03/10 05:15:26;;;;;;;1.92;1.10;;;6.30;99.90;;;;;;2084611;28;20681;-63
2023/03/10 05:16:31;;;;;;;3.40;0.90;;;6.40;99.90;;;;;;2081620;28;20555;-62
2023/03/10 05:17:37;;;;;;;2.08;0.85;;;6.50;99.90;;;;;;2075757;28;20185;-63
2023/03/10 05:18:42;;;;;;;2.40;1.20;;;6.60;99.90;;;;;;2076906;28;20269;-63
2023/03/10 05:19:48;;;;;;;2.78;2.63;;;6.60;99.90;;;;;;2081457;28;20675;-62
2023/03/10 05:20:55;;;;;;;1.92;0.70;;;6.50;99.90;;;;;;2084820;28;20203;-63
2023/03/10 05:21:59;;;;;;;0.98;0.60;;;6.40;99.90;;;;;;2084879;28;20201;-63
2023/03/10 05:23:05;;;;;;;1.70;0.88;;;6.40;99.90;;;;;;2081172;28;20263;-63
2023/03/10 05:24:09;;;;;;;2.78;2.17;;;6.30;99.90;;;;;;2080224;28;20649;-62
2023/03/10 05:25:15;;;;;;;0.73;0.60;;;6.40;99.90;;;;;;2071963;28;20213;-63
2023/03/10 05:26:21;;;;;;;1.17;0.73;;;6.30;99.90;;;;;;2084869;28;20559;-63
2023/03/10 05:27:26;;;;;;;1.85;0.70;;;6.40;99.90;;;;;;2073355;28;20192;-63
2023/03/10 05:28:31;;;;;;;2.63;0.70;;;6.40;99.90;;;;;;2080255;28;20185;-62
2023/03/10 05:29:38;;;;;;;1.02;0.70;;;6.40;99.90;;;;;;2085455;28;20191;-63
2023/03/10 05:30:43;;;;;;;2.88;0.90;;;6.40;99.90;;;;;;2085460;28;20205;-63
2023/03/10 05:31:49;;;;;;;3.70;1.02;;;6.50;99.90;;;;;;2085122;28;20184;-63
2023/03/10 05:32:54;;;;;;;3.22;1.27;;;6.50;99.90;;;;;;2084735;28;20290;-63
2023/03/10 05:33:59;;;;;;;1.95;1.05;;;6.50;99.90;;;;;;2084697;28;20218;-62
2023/03/10 05:35:05;;;;;;;2.28;0.80;;;6.40;99.90;;;;;;2084840;28;20189;-63
2023/03/10 05:36:12;;;;;;;2.22;0.90;;;6.50;99.90;;;;;;2084428;28;20211;-62
2023/03/10 05:37:16;;;;;;;3.92;2.20;;;6.60;99.90;;;;;;2081848;28;20197;-63
2023/03/10 05:38:21;;;;;;;4.03;3.72;;;6.50;99.90;;;;;;2084440;28;20551;-63
2023/03/10 05:39:26;;;;;;;2.63;1.10;;;6.50;99.90;;;;;;2084616;28;20195;-63
2023/03/10 05:40:32;;;;;;;4.00;1.33;;;6.50;99.90;;;;;;2085072;28;20192;-63
2023/03/10 05:41:37;;;;;;;2.80;1.40;;;6.50;99.90;;;;;;2085178;28;20191;-63
2023/03/10 05:42:43;;;;;;;3.38;0.80;;;6.50;99.90;;;;;;2085130;28;20184;-63
2023/03/10 05:43:48;;;;;;;2.42;2.22;;;6.40;99.90;;;;;;2081495;28;20180;-62
2023/03/10 05:44:53;;;;;;;2.97;1.83;;;6.50;99.90;;;;;;2084856;28;20184;-63
2023/03/10 05:46:00;;;;;;;5.03;3.10;;;6.50;99.90;;;;;;2084639;28;20666;-62
2023/03/10 05:47:05;;;;;;;2.60;0.90;;;6.50;99.90;;;;;;2075344;28;20213;-63
2023/03/10 05:48:09;;;;;;;2.53;0.90;;;6.50;99.90;;;;;;2076406;28;20267;-63
2023/03/10 05:49:15;;;;;;;2.03;1.92;;;6.50;99.90;;;;;;2084695;28;20324;-62
2023/03/10 05:50:20;;;;;;;1.40;1.27;;;6.50;99.90;;;;;;2080981;28;20190;-61